sensor_id;sensor_type;location;lat;lon;timestamp;pressure;altitude;pressure_sealevel;temperature;humidity
57900;BME280;60605;53.716;19.940;2022-10-16T00:03:19;100239.77;;;14.29;100.00
57900;BME280;60605;53.716;19.940;2022-10-16T00:08:24;100241.95;;;14.26;100.00
57900;BME280;60605;53.716;19.940;2022-10-16T00:13:27;100246.09;;;14.22;100.00
57900;BME280;60605;53.716;19.940;2022-10-16T00:18:32;100250.27;;;14.20;100.00
57900;BME280;60605;53.716;19.940;2022-10-16T00:23:36;100242.89;;;14.17;100.00
57900;BME280;60605;53.716;19.940;2022-10-16T00:28:39;100230.77;;;14.14;100.00
57900;BME280;60605;53.716;19.940;2022-10-16T00:33:43;100234.35;;;14.13;100.00
57900;BME280;60605;53.716;19.940;2022-10-16T00:38:46;100246.48;;;14.12;100.00
57900;BME280;60605;53.716;19.940;2022-10-16T00:48:59;100250.49;;;14.11;100.00
57900;BME280;60605;53.716;19.940;2022-10-16T00:54:08;100249.58;;;14.12;100.00
57900;BME280;60605;53.716;19.940;2022-10-16T00:59:23;100253.98;;;14.12;100.00
57900;BME280;60605;53.716;19.940;2022-10-16T01:04:35;100260.77;;;14.13;100.00
57900;BME280;60605;53.716;19.940;2022-10-16T01:10:06;100260.80;;;14.13;100.00
57900;BME280;60605;53.716;19.940;2022-10-16T01:21:26;100265.35;;;14.12;100.00
57900;BME280;60605;53.716;19.940;2022-10-16T01:26:41;100271.61;;;14.12;100.00
57900;BME280;60605;53.716;19.940;2022-10-16T01:31:52;100273.87;;;14.13;100.00
57900;BME280;60605;53.716;19.940;2022-10-16T01:37:15;100273.02;;;14.14;100.00
57900;BME280;60605;53.716;19.940;2022-10-16T01:42:21;100269.98;;;14.14;100.00
57900;BME280;60605;53.716;19.940;2022-10-16T01:47:27;100265.10;;;14.14;100.00
57900;BME280;60605;53.716;19.940;2022-10-16T01:52:36;100259.32;;;14.15;100.00
57900;BME280;60605;53.716;19.940;2022-10-16T01:57:44;100252.45;;;14.15;100.00
57900;BME280;60605;53.716;19.940;2022-10-16T02:02:51;100250.38;;;14.16;100.00
57900;BME280;60605;53.716;19.940;2022-10-16T02:07:55;100252.29;;;14.16;100.00
57900;BME280;60605;53.716;19.940;2022-10-16T02:13:33;100247.55;;;14.15;100.00
57900;BME280;60605;53.716;19.940;2022-10-16T02:18:34;100252.27;;;14.13;100.00
57900;BME280;60605;53.716;19.940;2022-10-16T02:23:51;100262.29;;;14.12;100.00
57900;BME280;60605;53.716;19.940;2022-10-16T02:29:02;100264.74;;;14.13;100.00
57900;BME280;60605;53.716;19.940;2022-10-16T02:34:08;100269.27;;;14.14;100.00
57900;BME280;60605;53.716;19.940;2022-10-16T02:39:15;100274.54;;;14.13;100.00
57900;BME280;60605;53.716;19.940;2022-10-16T02:44:19;100280.45;;;14.12;100.00
57900;BME280;60605;53.716;19.940;2022-10-16T02:49:22;100278.05;;;14.11;100.00
57900;BME280;60605;53.716;19.940;2022-10-16T02:54:25;100278.73;;;14.10;100.00
57900;BME280;60605;53.716;19.940;2022-10-16T02:59:28;100280.19;;;14.08;100.00
57900;BME280;60605;53.716;19.940;2022-10-16T03:04:31;100284.26;;;14.07;100.00
57900;BME280;60605;53.716;19.940;2022-10-16T03:09:34;100286.70;;;14.06;100.00
57900;BME280;60605;53.716;19.940;2022-10-16T03:14:37;100280.73;;;14.07;100.00
57900;BME280;60605;53.716;19.940;2022-10-16T03:19:42;100277.13;;;14.07;100.00
57900;BME280;60605;53.716;19.940;2022-10-16T03:24:46;100280.45;;;14.07;100.00
57900;BME280;60605;53.716;19.940;2022-10-16T03:29:49;100283.29;;;14.08;100.00
57900;BME280;60605;53.716;19.940;2022-10-16T03:34:52;100287.86;;;14.04;100.00
57900;BME280;60605;53.716;19.940;2022-10-16T03:39:57;100290.05;;;13.93;100.00
57900;BME280;60605;53.716;19.940;2022-10-16T03:45:00;100291.77;;;13.79;100.00
57900;BME280;60605;53.716;19.940;2022-10-16T03:50:05;100293.25;;;13.65;100.00
57900;BME280;60605;53.716;19.940;2022-10-16T03:55:08;100291.59;;;13.51;100.00
57900;BME280;60605;53.716;19.940;2022-10-16T04:00:12;100296.68;;;13.39;100.00
57900;BME280;60605;53.716;19.940;2022-10-16T04:05:16;100297.36;;;13.27;100.00
57900;BME280;60605;53.716;19.940;2022-10-16T04:10:19;100295.84;;;13.15;100.00
57900;BME280;60605;53.716;19.940;2022-10-16T04:15:25;100301.21;;;13.04;100.00
57900;BME280;60605;53.716;19.940;2022-10-16T04:20:28;100304.61;;;12.92;100.00
57900;BME280;60605;53.716;19.940;2022-10-16T04:25:33;100311.02;;;12.83;100.00
57900;BME280;60605;53.716;19.940;2022-10-16T04:30:38;100306.93;;;12.76;100.00
57900;BME280;60605;53.716;19.940;2022-10-16T04:35:42;100307.67;;;12.71;100.00
57900;BME280;60605;53.716;19.940;2022-10-16T04:40:45;100314.55;;;12.67;100.00
57900;BME280;60605;53.716;19.940;2022-10-16T04:45:48;100322.42;;;12.64;100.00
57900;BME280;60605;53.716;19.940;2022-10-16T04:50:53;100327.48;;;12.64;100.00
57900;BME280;60605;53.716;19.940;2022-10-16T04:55:56;100326.12;;;12.70;100.00
57900;BME280;60605;53.716;19.940;2022-10-16T05:01:00;100318.67;;;12.75;100.00
57900;BME280;60605;53.716;19.940;2022-10-16T05:06:05;100318.43;;;12.77;100.00
57900;BME280;60605;53.716;19.940;2022-10-16T05:11:09;100317.84;;;12.78;100.00
57900;BME280;60605;53.716;19.940;2022-10-16T05:16:12;100322.40;;;12.79;100.00
57900;BME280;60605;53.716;19.940;2022-10-16T05:21:15;100320.70;;;12.81;100.00
57900;BME280;60605;53.716;19.940;2022-10-16T05:26:18;100321.16;;;12.87;100.00
57900;BME280;60605;53.716;19.940;2022-10-16T05:31:21;100327.53;;;12.94;100.00
57900;BME280;60605;53.716;19.940;2022-10-16T05:36:24;100342.17;;;13.02;100.00
57900;BME280;60605;53.716;19.940;2022-10-16T05:41:28;100348.82;;;13.10;100.00
57900;BME280;60605;53.716;19.940;2022-10-16T05:46:31;100342.14;;;13.15;100.00
57900;BME280;60605;53.716;19.940;2022-10-16T05:51:35;100343.23;;;13.19;100.00
57900;BME280;60605;53.716;19.940;2022-10-16T05:56:38;100346.06;;;13.25;100.00
57900;BME280;60605;53.716;19.940;2022-10-16T06:01:41;100355.19;;;13.30;100.00
57900;BME280;60605;53.716;19.940;2022-10-16T06:06:44;100364.57;;;13.37;100.00
57900;BME280;60605;53.716;19.940;2022-10-16T06:11:47;100380.23;;;13.43;100.00
57900;BME280;60605;53.716;19.940;2022-10-16T06:16:51;100377.73;;;13.48;100.00
57900;BME280;60605;53.716;19.940;2022-10-16T06:21:54;100373.35;;;13.52;100.00
57900;BME280;60605;53.716;19.940;2022-10-16T06:26:57;100374.37;;;13.57;100.00
57900;BME280;60605;53.716;19.940;2022-10-16T06:32:00;100378.17;;;13.65;100.00
57900;BME280;60605;53.716;19.940;2022-10-16T06:37:03;100391.59;;;13.75;100.00
57900;BME280;60605;53.716;19.940;2022-10-16T06:42:06;100392.30;;;13.84;100.00
57900;BME280;60605;53.716;19.940;2022-10-16T06:47:09;100391.06;;;13.97;100.00
57900;BME280;60605;53.716;19.940;2022-10-16T06:52:13;100393.41;;;14.12;100.00
57900;BME280;60605;53.716;19.940;2022-10-16T06:57:16;100394.36;;;14.33;100.00
57900;BME280;60605;53.716;19.940;2022-10-16T07:02:19;100396.36;;;14.51;100.00
57900;BME280;60605;53.716;19.940;2022-10-16T07:07:22;100398.78;;;14.65;100.00
57900;BME280;60605;53.716;19.940;2022-10-16T07:12:27;100404.33;;;14.76;100.00
57900;BME280;60605;53.716;19.940;2022-10-16T07:17:32;100408.39;;;14.85;100.00
57900;BME280;60605;53.716;19.940;2022-10-16T07:22:35;100422.17;;;14.96;100.00
57900;BME280;60605;53.716;19.940;2022-10-16T07:27:38;100435.30;;;15.00;100.00
57900;BME280;60605;53.716;19.940;2022-10-16T07:32:42;100432.84;;;15.05;100.00
57900;BME280;60605;53.716;19.940;2022-10-16T07:37:46;100430.10;;;15.20;100.00
57900;BME280;60605;53.716;19.940;2022-10-16T07:42:49;100426.02;;;15.41;100.00
57900;BME280;60605;53.716;19.940;2022-10-16T07:47:52;100433.20;;;15.59;100.00
57900;BME280;60605;53.716;19.940;2022-10-16T07:52:55;100435.52;;;15.68;100.00
57900;BME280;60605;53.716;19.940;2022-10-16T07:57:58;100436.36;;;15.70;99.97
57900;BME280;60605;53.716;19.940;2022-10-16T08:03:01;100441.21;;;15.67;99.80
57900;BME280;60605;53.716;19.940;2022-10-16T08:08:04;100447.14;;;15.64;99.70
57900;BME280;60605;53.716;19.940;2022-10-16T08:13:08;100455.20;;;15.62;99.84
57900;BME280;60605;53.716;19.940;2022-10-16T08:18:13;100451.68;;;15.61;99.97
57900;BME280;60605;53.716;19.940;2022-10-16T08:23:16;100452.67;;;15.74;100.00
57900;BME280;60605;53.716;19.940;2022-10-16T08:28:20;100456.45;;;15.90;100.00
57900;BME280;60605;53.716;19.940;2022-10-16T08:33:23;100457.28;;;16.00;100.00
57900;BME280;60605;53.716;19.940;2022-10-16T08:38:26;100462.13;;;16.06;100.00
57900;BME280;60605;53.716;19.940;2022-10-16T08:49:13;100477.53;;;16.14;100.00
57900;BME280;60605;53.716;19.940;2022-10-16T08:59:22;100477.19;;;16.38;99.92
57900;BME280;60605;53.716;19.940;2022-10-16T09:05:02;100474.74;;;16.56;99.85
57900;BME280;60605;53.716;19.940;2022-10-16T09:21:14;100482.02;;;16.93;96.74
57900;BME280;60605;53.716;19.940;2022-10-16T09:26:18;100474.61;;;16.99;97.19
57900;BME280;60605;53.716;19.940;2022-10-16T09:31:25;100478.76;;;17.04;96.85
57900;BME280;60605;53.716;19.940;2022-10-16T09:36:35;100483.23;;;16.97;97.10
57900;BME280;60605;53.716;19.940;2022-10-16T09:41:44;100476.52;;;16.84;97.12
57900;BME280;60605;53.716;19.940;2022-10-16T09:46:48;100475.73;;;16.72;98.07
57900;BME280;60605;53.716;19.940;2022-10-16T09:52:12;100472.80;;;16.65;99.02
57900;BME280;60605;53.716;19.940;2022-10-16T09:57:16;100472.46;;;16.70;99.95
57900;BME280;60605;53.716;19.940;2022-10-16T10:02:36;100483.98;;;16.81;99.99
57900;BME280;60605;53.716;19.940;2022-10-16T10:07:43;100485.33;;;16.85;100.00
57900;BME280;60605;53.716;19.940;2022-10-16T10:12:51;100494.39;;;16.90;100.00
57900;BME280;60605;53.716;19.940;2022-10-16T10:17:56;100499.83;;;16.97;100.00
57900;BME280;60605;53.716;19.940;2022-10-16T10:23:01;100496.52;;;17.15;99.91
57900;BME280;60605;53.716;19.940;2022-10-16T10:33:28;100493.89;;;17.88;98.51
57900;BME280;60605;53.716;19.940;2022-10-16T11:10:53;100509.25;;;20.28;85.63
57900;BME280;60605;53.716;19.940;2022-10-16T11:16:00;100500.82;;;19.97;86.07
57900;BME280;60605;53.716;19.940;2022-10-16T11:21:10;100496.70;;;19.70;86.95
57900;BME280;60605;53.716;19.940;2022-10-16T11:26:20;100496.23;;;19.39;87.53
57900;BME280;60605;53.716;19.940;2022-10-16T11:36:58;100500.52;;;18.82;89.94
57900;BME280;60605;53.716;19.940;2022-10-16T11:42:30;100497.70;;;18.72;90.76
57900;BME280;60605;53.716;19.940;2022-10-16T11:47:52;100485.22;;;18.96;91.40
57900;BME280;60605;53.716;19.940;2022-10-16T11:53:16;100484.48;;;19.48;90.31
57900;BME280;60605;53.716;19.940;2022-10-16T11:58:47;100489.64;;;19.84;89.21
57900;BME280;60605;53.716;19.940;2022-10-16T12:04:26;100489.19;;;20.35;87.46
57900;BME280;60605;53.716;19.940;2022-10-16T12:09:40;100498.27;;;20.79;85.63
57900;BME280;60605;53.716;19.940;2022-10-16T12:14:45;100511.61;;;20.66;84.27
57900;BME280;60605;53.716;19.940;2022-10-16T12:25:38;100499.91;;;20.05;85.25
57900;BME280;60605;53.716;19.940;2022-10-16T12:31:02;100498.15;;;20.01;85.62
57900;BME280;60605;53.716;19.940;2022-10-16T12:36:15;100504.05;;;19.97;85.83
57900;BME280;60605;53.716;19.940;2022-10-16T12:51:36;100510.09;;;19.41;86.90
57900;BME280;60605;53.716;19.940;2022-10-16T13:07:46;100511.55;;;19.14;89.51
57900;BME280;60605;53.716;19.940;2022-10-16T13:28:42;100529.86;;;19.20;90.16
57900;BME280;60605;53.716;19.940;2022-10-16T13:33:52;100538.41;;;19.10;90.21
57900;BME280;60605;53.716;19.940;2022-10-16T13:39:01;100541.27;;;18.90;90.45
57900;BME280;60605;53.716;19.940;2022-10-16T13:44:19;100551.30;;;18.74;91.30
57900;BME280;60605;53.716;19.940;2022-10-16T13:49:23;100559.42;;;18.60;92.08
57900;BME280;60605;53.716;19.940;2022-10-16T13:54:27;100559.70;;;18.49;92.69
57900;BME280;60605;53.716;19.940;2022-10-16T13:59:35;100563.81;;;18.46;93.12
57900;BME280;60605;53.716;19.940;2022-10-16T14:04:40;100560.99;;;18.43;93.47
57900;BME280;60605;53.716;19.940;2022-10-16T14:09:48;100549.15;;;18.39;93.78
57900;BME280;60605;53.716;19.940;2022-10-16T14:14:54;100544.91;;;18.39;93.88
57900;BME280;60605;53.716;19.940;2022-10-16T14:20:01;100552.36;;;18.40;93.90
57900;BME280;60605;53.716;19.940;2022-10-16T14:30:23;100561.81;;;18.27;93.79
57900;BME280;60605;53.716;19.940;2022-10-16T14:35:33;100569.97;;;18.18;93.92
57900;BME280;60605;53.716;19.940;2022-10-16T14:40:37;100572.50;;;18.10;94.12
57900;BME280;60605;53.716;19.940;2022-10-16T14:45:41;100577.16;;;18.08;94.31
57900;BME280;60605;53.716;19.940;2022-10-16T14:50:46;100586.55;;;18.05;94.31
57900;BME280;60605;53.716;19.940;2022-10-16T14:55:50;100596.52;;;17.99;94.61
57900;BME280;60605;53.716;19.940;2022-10-16T15:00:55;100604.34;;;17.91;94.90
57900;BME280;60605;53.716;19.940;2022-10-16T15:05:59;100603.45;;;17.83;95.16
57900;BME280;60605;53.716;19.940;2022-10-16T15:11:03;100603.95;;;17.73;95.50
57900;BME280;60605;53.716;19.940;2022-10-16T15:16:15;100609.54;;;17.63;96.05
57900;BME280;60605;53.716;19.940;2022-10-16T15:21:26;100613.34;;;17.53;96.19
57900;BME280;60605;53.716;19.940;2022-10-16T15:26:31;100615.30;;;17.43;96.56
57900;BME280;60605;53.716;19.940;2022-10-16T15:31:36;100625.59;;;17.32;97.03
57900;BME280;60605;53.716;19.940;2022-10-16T15:36:41;100634.66;;;17.22;97.48
57900;BME280;60605;53.716;19.940;2022-10-16T15:41:45;100636.05;;;17.12;97.88
57900;BME280;60605;53.716;19.940;2022-10-16T15:46:54;100630.02;;;17.04;98.55
57900;BME280;60605;53.716;19.940;2022-10-16T15:51:58;100632.37;;;16.98;99.08
57900;BME280;60605;53.716;19.940;2022-10-16T15:57:01;100637.39;;;16.91;99.25
57900;BME280;60605;53.716;19.940;2022-10-16T16:02:05;100647.59;;;16.81;99.30
57900;BME280;60605;53.716;19.940;2022-10-16T16:07:09;100648.73;;;16.70;99.47
57900;BME280;60605;53.716;19.940;2022-10-16T16:12:12;100650.79;;;16.59;99.85
57900;BME280;60605;53.716;19.940;2022-10-16T16:17:16;100660.01;;;16.47;100.00
57900;BME280;60605;53.716;19.940;2022-10-16T16:22:20;100667.48;;;16.31;100.00
57900;BME280;60605;53.716;19.940;2022-10-16T16:27:24;100667.75;;;16.14;100.00
57900;BME280;60605;53.716;19.940;2022-10-16T16:32:34;100669.77;;;15.94;100.00
57900;BME280;60605;53.716;19.940;2022-10-16T16:37:38;100677.89;;;15.73;100.00
57900;BME280;60605;53.716;19.940;2022-10-16T16:42:41;100683.09;;;15.56;100.00
57900;BME280;60605;53.716;19.940;2022-10-16T16:47:44;100688.09;;;15.39;100.00
57900;BME280;60605;53.716;19.940;2022-10-16T16:52:48;100693.30;;;15.25;100.00
57900;BME280;60605;53.716;19.940;2022-10-16T16:57:51;100695.76;;;15.13;100.00
57900;BME280;60605;53.716;19.940;2022-10-16T17:02:55;100701.40;;;15.05;100.00
57900;BME280;60605;53.716;19.940;2022-10-16T17:07:58;100714.09;;;14.96;100.00
57900;BME280;60605;53.716;19.940;2022-10-16T17:13:02;100715.41;;;14.86;100.00
57900;BME280;60605;53.716;19.940;2022-10-16T17:18:06;100716.02;;;14.77;100.00
57900;BME280;60605;53.716;19.940;2022-10-16T17:23:10;100719.34;;;14.72;100.00
57900;BME280;60605;53.716;19.940;2022-10-16T17:28:17;100724.71;;;14.67;100.00
57900;BME280;60605;53.716;19.940;2022-10-16T17:33:20;100730.73;;;14.61;100.00
57900;BME280;60605;53.716;19.940;2022-10-16T17:38:25;100736.70;;;14.55;100.00
57900;BME280;60605;53.716;19.940;2022-10-16T17:43:28;100751.48;;;14.48;100.00
57900;BME280;60605;53.716;19.940;2022-10-16T17:48:31;100761.10;;;14.40;100.00
57900;BME280;60605;53.716;19.940;2022-10-16T17:53:35;100766.41;;;14.33;100.00
57900;BME280;60605;53.716;19.940;2022-10-16T17:58:39;100768.33;;;14.25;100.00
57900;BME280;60605;53.716;19.940;2022-10-16T18:03:42;100774.41;;;14.19;100.00
57900;BME280;60605;53.716;19.940;2022-10-16T18:08:46;100778.58;;;14.15;100.00
57900;BME280;60605;53.716;19.940;2022-10-16T18:13:52;100783.11;;;14.11;100.00
57900;BME280;60605;53.716;19.940;2022-10-16T18:18:57;100788.02;;;14.07;100.00
57900;BME280;60605;53.716;19.940;2022-10-16T18:24:01;100788.20;;;14.03;100.00
57900;BME280;60605;53.716;19.940;2022-10-16T18:29:05;100794.05;;;14.02;100.00
57900;BME280;60605;53.716;19.940;2022-10-16T18:34:08;100800.48;;;13.98;100.00
57900;BME280;60605;53.716;19.940;2022-10-16T18:39:12;100799.72;;;13.95;100.00
57900;BME280;60605;53.716;19.940;2022-10-16T18:44:18;100807.74;;;13.92;100.00
57900;BME280;60605;53.716;19.940;2022-10-16T18:49:26;100812.06;;;13.87;100.00
57900;BME280;60605;53.716;19.940;2022-10-16T18:54:32;100821.92;;;13.80;100.00
57900;BME280;60605;53.716;19.940;2022-10-16T18:59:35;100826.94;;;13.72;100.00
57900;BME280;60605;53.716;19.940;2022-10-16T19:04:39;100833.69;;;13.68;100.00
57900;BME280;60605;53.716;19.940;2022-10-16T19:09:43;100839.95;;;13.68;100.00
57900;BME280;60605;53.716;19.940;2022-10-16T19:14:49;100846.06;;;13.71;100.00
57900;BME280;60605;53.716;19.940;2022-10-16T19:19:55;100848.07;;;13.74;100.00
57900;BME280;60605;53.716;19.940;2022-10-16T19:24:59;100858.30;;;13.79;100.00
57900;BME280;60605;53.716;19.940;2022-10-16T19:30:03;100867.14;;;13.82;100.00
57900;BME280;60605;53.716;19.940;2022-10-16T19:35:08;100868.77;;;13.84;100.00
57900;BME280;60605;53.716;19.940;2022-10-16T19:40:15;100870.52;;;13.83;100.00
57900;BME280;60605;53.716;19.940;2022-10-16T19:45:20;100879.09;;;13.76;100.00
57900;BME280;60605;53.716;19.940;2022-10-16T19:50:24;100879.85;;;13.67;100.00
57900;BME280;60605;53.716;19.940;2022-10-16T19:55:29;100889.67;;;13.59;100.00
57900;BME280;60605;53.716;19.940;2022-10-16T20:00:32;100900.23;;;13.51;100.00
57900;BME280;60605;53.716;19.940;2022-10-16T20:05:35;100911.33;;;13.45;100.00
57900;BME280;60605;53.716;19.940;2022-10-16T20:10:46;100917.49;;;13.39;100.00
57900;BME280;60605;53.716;19.940;2022-10-16T20:15:50;100919.58;;;13.34;100.00
57900;BME280;60605;53.716;19.940;2022-10-16T20:20:54;100928.27;;;13.32;100.00
57900;BME280;60605;53.716;19.940;2022-10-16T20:25:59;100935.35;;;13.31;100.00
57900;BME280;60605;53.716;19.940;2022-10-16T20:31:16;100940.06;;;13.30;100.00
57900;BME280;60605;53.716;19.940;2022-10-16T20:36:24;100939.19;;;13.30;100.00
57900;BME280;60605;53.716;19.940;2022-10-16T20:41:28;100940.77;;;13.27;100.00
57900;BME280;60605;53.716;19.940;2022-10-16T20:46:31;100943.72;;;13.23;100.00
57900;BME280;60605;53.716;19.940;2022-10-16T20:51:34;100947.27;;;13.18;100.00
57900;BME280;60605;53.716;19.940;2022-10-16T20:56:37;100956.17;;;13.13;100.00
57900;BME280;60605;53.716;19.940;2022-10-16T21:01:41;100961.03;;;13.06;100.00
57900;BME280;60605;53.716;19.940;2022-10-16T21:06:44;100970.33;;;12.95;100.00
57900;BME280;60605;53.716;19.940;2022-10-16T21:11:47;100972.42;;;12.85;100.00
57900;BME280;60605;53.716;19.940;2022-10-16T21:16:50;100972.90;;;12.75;100.00
57900;BME280;60605;53.716;19.940;2022-10-16T21:21:54;100979.67;;;12.66;100.00
57900;BME280;60605;53.716;19.940;2022-10-16T21:26:58;100990.05;;;12.57;100.00
57900;BME280;60605;53.716;19.940;2022-10-16T21:32:01;101000.13;;;12.51;100.00
57900;BME280;60605;53.716;19.940;2022-10-16T21:37:04;101007.87;;;12.45;100.00
57900;BME280;60605;53.716;19.940;2022-10-16T21:42:07;101016.10;;;12.40;100.00
57900;BME280;60605;53.716;19.940;2022-10-16T21:47:11;101026.98;;;12.36;100.00
57900;BME280;60605;53.716;19.940;2022-10-16T21:52:14;101039.48;;;12.29;100.00
57900;BME280;60605;53.716;19.940;2022-10-16T21:57:18;101049.56;;;12.23;100.00
57900;BME280;60605;53.716;19.940;2022-10-16T22:02:21;101055.95;;;12.18;100.00
57900;BME280;60605;53.716;19.940;2022-10-16T22:07:24;101063.12;;;12.14;100.00
57900;BME280;60605;53.716;19.940;2022-10-16T22:12:28;101065.84;;;12.10;100.00
57900;BME280;60605;53.716;19.940;2022-10-16T22:17:31;101070.64;;;12.07;100.00
57900;BME280;60605;53.716;19.940;2022-10-16T22:22:34;101075.20;;;12.00;100.00
57900;BME280;60605;53.716;19.940;2022-10-16T22:27:37;101077.81;;;11.92;100.00
57900;BME280;60605;53.716;19.940;2022-10-16T22:32:41;101081.59;;;11.82;100.00
57900;BME280;60605;53.716;19.940;2022-10-16T22:37:44;101091.98;;;11.72;100.00
57900;BME280;60605;53.716;19.940;2022-10-16T22:42:47;101094.39;;;11.63;100.00
57900;BME280;60605;53.716;19.940;2022-10-16T22:47:55;101097.55;;;11.60;100.00
57900;BME280;60605;53.716;19.940;2022-10-16T22:52:58;101096.95;;;11.55;100.00
57900;BME280;60605;53.716;19.940;2022-10-16T22:58:01;101102.08;;;11.50;100.00
57900;BME280;60605;53.716;19.940;2022-10-16T23:03:04;101101.60;;;11.43;100.00
57900;BME280;60605;53.716;19.940;2022-10-16T23:08:08;101108.41;;;11.33;100.00
57900;BME280;60605;53.716;19.940;2022-10-16T23:13:12;101117.31;;;11.20;100.00
57900;BME280;60605;53.716;19.940;2022-10-16T23:18:15;101127.34;;;11.07;100.00
57900;BME280;60605;53.716;19.940;2022-10-16T23:23:18;101135.54;;;10.96;100.00
57900;BME280;60605;53.716;19.940;2022-10-16T23:28:22;101138.13;;;10.79;100.00
57900;BME280;60605;53.716;19.940;2022-10-16T23:33:25;101138.67;;;10.64;100.00
57900;BME280;60605;53.716;19.940;2022-10-16T23:38:28;101140.04;;;10.52;100.00
57900;BME280;60605;53.716;19.940;2022-10-16T23:43:32;101135.62;;;10.43;100.00
57900;BME280;60605;53.716;19.940;2022-10-16T23:48:35;101141.62;;;10.40;100.00
57900;BME280;60605;53.716;19.940;2022-10-16T23:53:41;101153.38;;;10.34;100.00
57900;BME280;60605;53.716;19.940;2022-10-16T23:58:44;101155.17;;;10.26;100.00
